Time;durP1;ratioP1;P1;durP2;ratioP2;P2;SDS_P1;SDS_P2;PMS_P1;PMS_P2;Temp;Humidity;BMP_temperature;BMP_pressure;BME280_temperature;BME280_humidity;BME280_pressure;Samples;Min_cycle;Max_cycle;Signal;HPM_P1;HPM_P2
2023/02/22 00:00:43;;;;;;;38.08;26.23;;;4.80;90.70;;;;;;5039384;28;20611;-71
2023/02/22 00:03:14;;;;;;;40.00;27.33;;;4.80;90.80;;;;;;5041256;28;20684;-72
2023/02/22 00:05:44;;;;;;;87.53;31.05;;;4.80;91.00;;;;;;5023844;28;20107;-72
2023/02/22 00:08:10;;;;;;;58.05;29.48;;;4.80;91.10;;;;;;5024033;28;20025;-72
2023/02/22 00:10:39;;;;;;;37.72;26.10;;;4.80;91.00;;;;;;5042749;28;20029;-75
2023/02/22 00:13:09;;;;;;;42.10;26.33;;;4.70;91.10;;;;;;5043318;28;20082;-71
2023/02/22 00:15:35;;;;;;;49.97;29.15;;;4.70;91.10;;;;;;5042717;28;20487;-74
2023/02/22 00:18:02;;;;;;;40.63;26.88;;;4.80;91.20;;;;;;5041684;28;20017;-73
2023/02/22 00:20:28;;;;;;;39.28;25.08;;;4.80;91.20;;;;;;5040221;28;20029;-72
2023/02/22 00:22:54;;;;;;;47.00;25.73;;;4.80;91.10;;;;;;5044933;28;20039;-71
2023/02/22 00:25:22;;;;;;;65.78;28.55;;;4.70;91.00;;;;;;5047224;28;20021;-72
2023/02/22 00:27:52;;;;;;;35.47;24.52;;;4.60;90.90;;;;;;5044908;28;20137;-74
2023/02/22 00:30:25;;;;;;;49.83;25.30;;;4.60;90.80;;;;;;5042521;28;20304;-72
2023/02/22 00:32:51;;;;;;;36.42;24.40;;;4.50;90.50;;;;;;5046039;28;20045;-73
2023/02/22 00:35:20;;;;;;;42.50;26.60;;;4.30;90.50;;;;;;5048595;28;20108;-73
2023/02/22 00:37:50;;;;;;;51.38;27.52;;;4.30;90.70;;;;;;5041955;28;20041;-72
2023/02/22 00:40:19;;;;;;;58.63;27.20;;;4.30;90.90;;;;;;5025885;28;20036;-71
2023/02/22 00:42:45;;;;;;;40.05;25.90;;;4.20;91.00;;;;;;5043689;28;20416;-72
2023/02/22 00:45:12;;;;;;;49.78;26.67;;;4.20;91.10;;;;;;5025691;28;20118;-71
2023/02/22 00:47:38;;;;;;;52.53;28.30;;;4.20;91.10;;;;;;5045838;28;20087;-71
2023/02/22 00:50:04;;;;;;;45.92;27.50;;;4.20;91.20;;;;;;5047043;28;20024;-73
2023/02/22 00:52:30;;;;;;;61.42;29.40;;;4.20;91.20;;;;;;5026412;28;20044;-72
2023/02/22 00:54:56;;;;;;;47.10;27.80;;;4.20;91.30;;;;;;5026270;28;20787;-71
2023/02/22 00:57:23;;;;;;;46.70;27.52;;;4.20;91.40;;;;;;5039768;28;20045;-71
2023/02/22 00:59:49;;;;;;;50.85;27.38;;;4.20;91.30;;;;;;5042488;28;20029;-72
2023/02/22 01:02:15;;;;;;;45.00;28.38;;;4.20;91.40;;;;;;5042825;28;20045;-72
2023/02/22 01:04:41;;;;;;;46.72;26.60;;;4.10;91.40;;;;;;5040949;28;20235;-75
2023/02/22 01:07:07;;;;;;;41.03;25.48;;;4.10;91.20;;;;;;5041284;28;20053;-71
2023/02/22 01:09:33;;;;;;;39.13;24.92;;;4.10;91.40;;;;;;5041291;28;20373;-73
2023/02/22 01:12:00;;;;;;;41.55;25.83;;;4.10;91.50;;;;;;5042389;28;20115;-72
2023/02/22 01:14:26;;;;;;;38.13;24.73;;;4.10;91.50;;;;;;5022705;28;20477;-70
2023/02/22 01:16:53;;;;;;;42.72;25.90;;;4.20;91.60;;;;;;5040105;28;20060;-74
2023/02/22 01:19:20;;;;;;;38.22;24.80;;;4.10;91.70;;;;;;5039166;28;20021;-72
2023/02/22 01:21:47;;;;;;;43.15;27.40;;;4.20;91.60;;;;;;5041600;28;21029;-71
2023/02/22 01:24:15;;;;;;;37.40;24.08;;;4.20;91.70;;;;;;5040065;28;20029;-72
2023/02/22 01:26:49;;;;;;;38.60;25.42;;;4.30;91.70;;;;;;5023724;28;20053;-72
2023/02/22 01:29:16;;;;;;;38.58;25.92;;;4.30;91.50;;;;;;5023488;28;20049;-71
2023/02/22 01:31:49;;;;;;;39.75;25.88;;;4.30;91.50;;;;;;5040600;28;20048;-74
2023/02/22 01:34:16;;;;;;;44.33;27.33;;;4.30;91.50;;;;;;5040920;28;20036;-71
2023/02/22 01:36:42;;;;;;;39.92;25.05;;;4.30;91.40;;;;;;5039448;28;20174;-73
2023/02/22 01:39:09;;;;;;;39.30;25.13;;;4.30;91.40;;;;;;5025424;28;20449;-70
2023/02/22 01:41:35;;;;;;;39.72;24.63;;;4.20;91.40;;;;;;5022828;28;20041;-74
2023/02/22 01:44:28;;;;;;;42.65;26.65;;;4.20;91.50;;;;;;5023965;28;20107;-72
2023/02/22 01:46:55;;;;;;;44.63;26.90;;;4.20;91.50;;;;;;5039795;28;20073;-74
2023/02/22 01:49:26;;;;;;;41.25;26.40;;;4.20;91.50;;;;;;5038011;28;20040;-73
2023/02/22 01:51:55;;;;;;;42.28;26.83;;;4.10;91.60;;;;;;5040155;28;21497;-77
2023/02/22 01:54:27;;;;;;;39.65;24.73;;;4.20;91.60;;;;;;5041070;28;20033;-74
2023/02/22 01:57:15;;;;;;;45.88;29.15;;;4.20;91.70;;;;;;5038674;28;20029;-73
2023/02/22 01:59:45;;;;;;;43.97;28.20;;;4.20;91.70;;;;;;5040883;28;20032;-72
2023/02/22 02:02:12;;;;;;;46.20;27.67;;;4.30;91.80;;;;;;5028671;28;20021;-71
2023/02/22 02:04:41;;;;;;;47.15;28.58;;;4.30;91.70;;;;;;5039117;28;20028;-71
2023/02/22 02:07:09;;;;;;;48.30;30.50;;;4.30;91.70;;;;;;5040400;28;20056;-73
2023/02/22 02:09:53;;;;;;;50.80;30.17;;;4.30;91.80;;;;;;5041530;28;20021;-77
2023/02/22 02:12:22;;;;;;;48.30;29.92;;;4.30;91.80;;;;;;5042078;28;20044;-72
2023/02/22 02:14:47;;;;;;;51.33;31.00;;;4.40;91.70;;;;;;5042429;28;20032;-72
2023/02/22 02:17:16;;;;;;;47.20;29.27;;;4.40;91.70;;;;;;5041258;28;20035;-73
2023/02/22 02:20:06;;;;;;;48.20;31.05;;;4.40;91.70;;;;;;5039552;28;20137;-72
2023/02/22 02:22:41;;;;;;;51.50;29.77;;;4.40;91.70;;;;;;5038654;28;20044;-71
2023/02/22 02:25:25;;;;;;;47.58;30.08;;;4.40;91.70;;;;;;5040612;28;20080;-73
2023/02/22 02:27:53;;;;;;;46.40;29.40;;;4.40;91.70;;;;;;5039683;28;20555;-74
2023/02/22 02:30:55;;;;;;;47.03;29.00;;;4.40;91.60;;;;;;5042141;28;20811;-72
2023/02/22 02:33:41;;;;;;;49.30;30.25;;;4.40;91.70;;;;;;4920788;29;20102;-72
2023/02/22 02:36:21;;;;;;;50.15;31.17;;;4.40;91.70;;;;;;5013612;28;20052;-73
2023/02/22 02:39:18;;;;;;;53.08;32.00;;;4.40;91.70;;;;;;5035636;28;20036;-74
2023/02/22 02:41:49;;;;;;;48.63;30.10;;;4.50;91.70;;;;;;5039247;28;20033;-75
2023/02/22 02:44:26;;;;;;;52.50;32.13;;;4.40;91.60;;;;;;5040809;28;20076;-72
2023/02/22 02:47:02;;;;;;;49.63;31.05;;;4.40;91.60;;;;;;5039751;28;20091;-77
2023/02/22 02:49:36;;;;;;;51.42;31.55;;;4.40;91.70;;;;;;5040350;28;20044;-75
2023/02/22 02:52:04;;;;;;;52.08;30.92;;;4.40;91.70;;;;;;5041497;28;20129;-72
2023/02/22 02:54:32;;;;;;;54.80;33.20;;;4.40;91.80;;;;;;5044561;28;20028;-71
2023/02/22 02:56:57;;;;;;;51.85;31.80;;;4.40;91.80;;;;;;5042150;28;20036;-72
2023/02/22 02:59:25;;;;;;;54.72;32.50;;;4.50;91.80;;;;;;5044600;28;20090;-72
2023/02/22 03:02:03;;;;;;;51.80;31.85;;;4.50;91.90;;;;;;5027289;28;22087;-73
2023/02/22 03:04:44;;;;;;;48.83;31.90;;;4.60;91.90;;;;;;5027086;28;20091;-76
2023/02/22 03:07:31;;;;;;;55.15;32.17;;;4.60;91.90;;;;;;5043802;28;20485;-74
2023/02/22 03:10:06;;;;;;;51.92;32.05;;;4.60;91.80;;;;;;5043389;28;20107;-72
2023/02/22 03:12:47;;;;;;;;;;;4.60;91.80;;;;;;5025434;28;20041;-71
2023/02/22 03:15:28;;;;;;;53.78;32.22;;;4.60;91.80;;;;;;5043950;28;19916;-75
2023/02/22 03:18:21;;;;;;;56.05;32.95;;;4.60;91.80;;;;;;5021268;28;20045;-73
2023/02/22 03:21:06;;;;;;;56.45;35.28;;;4.60;91.80;;;;;;5044188;28;20473;-71
2023/02/22 03:23:36;;;;;;;52.45;32.90;;;4.60;91.80;;;;;;5043834;28;20044;-73
2023/02/22 03:26:13;;;;;;;53.72;33.80;;;4.70;91.90;;;;;;5026515;28;20123;-72
2023/02/22 03:28:41;;;;;;;51.03;33.22;;;4.70;91.90;;;;;;5042771;28;20507;-71
2023/02/22 03:31:21;;;;;;;51.78;32.38;;;4.80;91.80;;;;;;5039141;28;20485;-75
2023/02/22 03:34:24;;;;;;;50.47;32.33;;;4.80;91.80;;;;;;5042858;28;20105;-77
2023/02/22 03:36:59;;;;;;;52.50;32.47;;;4.80;91.80;;;;;;4981729;28;20056;-72
2023/02/22 03:39:29;;;;;;;;;;;4.90;91.80;;;;;;5035137;28;20145;-72
2023/02/22 03:42:02;;;;;;;53.95;31.80;;;4.90;91.90;;;;;;5042280;28;20290;-74
2023/02/22 03:44:32;;;;;;;50.38;32.88;;;5.00;91.90;;;;;;5041548;28;20642;-72
2023/02/22 03:47:03;;;;;;;50.22;33.67;;;5.00;91.80;;;;;;5039660;28;20048;-70
2023/02/22 03:49:31;;;;;;;50.70;31.23;;;5.10;91.80;;;;;;5042716;28;20063;-72
2023/02/22 03:51:57;;;;;;;50.70;31.17;;;5.10;91.80;;;;;;5041837;28;20033;-71
2023/02/22 03:54:23;;;;;;;51.20;32.83;;;5.10;91.70;;;;;;5041462;28;20036;-72
2023/02/22 03:56:53;;;;;;;50.90;32.17;;;5.10;91.70;;;;;;5040412;28;20397;-71
2023/02/22 03:59:24;;;;;;;48.45;31.83;;;5.20;91.60;;;;;;5043537;28;20029;-72
2023/02/22 04:01:51;;;;;;;53.25;33.85;;;5.10;91.60;;;;;;5040887;28;20029;-72
2023/02/22 04:04:17;;;;;;;49.63;33.70;;;5.10;91.60;;;;;;5043592;28;20445;-72
2023/02/22 04:06:43;;;;;;;47.03;32.20;;;5.10;91.60;;;;;;5040316;28;20128;-71
2023/02/22 04:09:09;;;;;;;49.38;32.50;;;5.10;91.70;;;;;;5041977;28;20021;-73
2023/02/22 04:11:36;;;;;;;47.97;31.48;;;5.10;91.70;;;;;;5042642;28;20033;-74
2023/02/22 04:14:01;;;;;;;47.55;31.23;;;5.10;91.70;;;;;;5042186;28;20032;-74
2023/02/22 04:16:27;;;;;;;49.65;32.00;;;5.10;91.80;;;;;;5041225;28;20045;-71
2023/02/22 04:18:53;;;;;;;47.55;32.47;;;5.10;91.70;;;;;;5042276;28;20071;-70
2023/02/22 04:21:19;;;;;;;46.05;31.42;;;5.10;91.80;;;;;;5041848;28;21366;-71
2023/02/22 04:23:44;;;;;;;49.35;32.47;;;5.20;91.80;;;;;;5042799;28;20078;-76
2023/02/22 04:26:10;;;;;;;50.25;32.55;;;5.10;91.80;;;;;;5042833;28;20068;-76
2023/02/22 04:28:36;;;;;;;47.40;32.90;;;5.10;91.70;;;;;;5040892;28;20025;-73
2023/02/22 04:31:01;;;;;;;49.30;31.65;;;5.10;91.70;;;;;;5038745;28;20035;-71
2023/02/22 04:33:27;;;;;;;48.15;31.98;;;5.10;91.60;;;;;;5043368;28;21203;-71
2023/02/22 04:35:53;;;;;;;46.13;30.02;;;5.10;91.60;;;;;;5042176;28;20040;-72
2023/02/22 04:38:19;;;;;;;47.83;31.10;;;5.10;91.70;;;;;;5042677;28;20037;-75
2023/02/22 04:40:44;;;;;;;46.80;30.92;;;5.10;91.60;;;;;;5039581;28;20463;-72
2023/02/22 04:43:10;;;;;;;49.63;32.47;;;5.00;91.70;;;;;;5040953;28;20033;-73
2023/02/22 04:45:36;;;;;;;44.28;29.70;;;5.00;91.70;;;;;;5042247;28;20029;-73
2023/02/22 04:48:02;;;;;;;47.92;32.60;;;5.00;91.80;;;;;;5045813;28;20079;-73
2023/02/22 04:50:27;;;;;;;47.35;32.67;;;5.10;91.80;;;;;;5041447;28;20029;-72
2023/02/22 04:52:53;;;;;;;44.03;31.02;;;5.10;91.70;;;;;;5038924;28;20025;-72
2023/02/22 04:55:19;;;;;;;49.75;32.28;;;5.10;91.80;;;;;;5025939;28;20176;-72
2023/02/22 04:57:44;;;;;;;47.90;30.95;;;5.10;91.80;;;;;;5044056;28;20045;-76
2023/02/22 05:00:14;;;;;;;48.08;32.35;;;5.10;91.80;;;;;;5042967;28;20025;-74
2023/02/22 05:02:40;;;;;;;47.65;32.13;;;5.10;91.80;;;;;;5040738;28;20095;-75
2023/02/22 05:05:06;;;;;;;49.30;31.73;;;5.20;91.80;;;;;;5041990;28;20033;-71
2023/02/22 05:07:31;;;;;;;47.13;31.52;;;5.20;91.70;;;;;;5040656;28;20045;-75
2023/02/22 05:09:57;;;;;;;46.75;32.65;;;5.20;91.70;;;;;;5041658;28;20028;-71
2023/02/22 05:12:25;;;;;;;48.40;31.17;;;5.20;91.70;;;;;;5039823;28;20108;-72
2023/02/22 05:14:51;;;;;;;45.20;30.60;;;5.20;91.60;;;;;;5024272;28;20499;-72
2023/02/22 05:17:17;;;;;;;44.35;29.67;;;5.20;91.60;;;;;;5041050;28;20487;-72
2023/02/22 05:19:43;;;;;;;47.08;31.08;;;5.20;91.70;;;;;;5041409;28;20057;-76
2023/02/22 05:22:08;;;;;;;48.05;31.45;;;5.20;91.50;;;;;;5042397;28;20409;-74
2023/02/22 05:24:34;;;;;;;46.97;32.03;;;5.20;91.50;;;;;;5039976;28;20033;-72
2023/02/22 05:27:00;;;;;;;49.25;31.25;;;5.20;91.50;;;;;;5023744;28;20126;-73
2023/02/22 05:29:25;;;;;;;46.13;30.60;;;5.20;91.50;;;;;;5039709;28;20084;-71
2023/02/22 05:31:51;;;;;;;46.35;30.65;;;5.20;91.50;;;;;;5041135;28;20466;-71
2023/02/22 05:34:17;;;;;;;45.83;31.88;;;5.20;91.60;;;;;;5040707;28;20056;-75
2023/02/22 05:36:43;;;;;;;52.28;35.67;;;5.20;91.60;;;;;;5039634;28;20035;-74
2023/02/22 05:39:08;;;;;;;62.15;39.38;;;5.20;91.50;;;;;;5042780;28;20028;-71
2023/02/22 05:41:34;;;;;;;62.72;41.92;;;5.20;91.60;;;;;;5039726;28;20451;-75
2023/02/22 05:44:01;;;;;;;47.17;32.65;;;5.20;91.60;;;;;;5040901;28;20058;-72
2023/02/22 05:46:27;;;;;;;45.55;32.35;;;5.30;91.60;;;;;;5039152;28;20037;-76
2023/02/22 05:48:53;;;;;;;40.42;29.48;;;5.30;91.50;;;;;;5038188;28;20025;-73
2023/02/22 05:51:19;;;;;;;43.53;30.25;;;5.30;91.40;;;;;;5025022;28;20053;-71
2023/02/22 05:53:44;;;;;;;42.88;30.75;;;5.40;91.40;;;;;;5040033;28;20020;-71
2023/02/22 05:56:10;;;;;;;40.30;29.33;;;5.30;91.30;;;;;;5040659;28;20107;-72
2023/02/22 05:58:35;;;;;;;38.30;27.60;;;5.30;91.40;;;;;;5041924;28;20095;-72
2023/02/22 06:01:01;;;;;;;40.65;29.52;;;5.20;91.40;;;;;;5023505;28;20075;-73
2023/02/22 06:03:27;;;;;;;43.22;29.95;;;5.20;91.40;;;;;;5044156;28;20029;-74
2023/02/22 06:05:52;;;;;;;41.83;29.63;;;5.20;91.40;;;;;;5039898;28;20037;-72
2023/02/22 06:08:18;;;;;;;41.88;29.88;;;5.20;91.40;;;;;;5040909;28;20156;-74
2023/02/22 06:10:44;;;;;;;45.80;30.92;;;5.10;91.40;;;;;;5039779;28;20116;-73
2023/02/22 06:13:09;;;;;;;43.47;29.63;;;5.10;91.30;;;;;;5042366;28;20064;-71
2023/02/22 06:15:35;;;;;;;41.13;28.90;;;5.10;91.40;;;;;;5038776;28;20029;-77
2023/02/22 06:18:01;;;;;;;53.25;39.10;;;5.10;91.50;;;;;;5026977;28;20090;-73
2023/02/22 06:20:28;;;;;;;47.38;35.33;;;5.10;91.50;;;;;;5039389;28;20025;-73
2023/02/22 06:22:56;;;;;;;45.78;34.33;;;5.10;91.50;;;;;;5031598;28;20025;-72
2023/02/22 06:25:25;;;;;;;44.53;32.17;;;5.10;91.50;;;;;;5042067;28;20024;-71
2023/02/22 06:27:51;;;;;;;46.90;31.85;;;5.10;91.60;;;;;;5051363;28;20064;-72
2023/02/22 06:30:20;;;;;;;43.03;30.67;;;5.10;91.60;;;;;;5046001;28;20041;-73
2023/02/22 06:32:46;;;;;;;38.80;28.80;;;5.10;91.70;;;;;;5025152;28;20048;-72
2023/02/22 06:35:13;;;;;;;40.17;29.52;;;5.10;91.70;;;;;;5043860;28;20028;-73
2023/02/22 06:37:39;;;;;;;44.17;28.77;;;5.20;91.70;;;;;;5048702;28;20485;-71
2023/02/22 06:40:05;;;;;;;43.70;31.08;;;5.20;91.70;;;;;;5045792;28;20021;-73
2023/02/22 06:42:30;;;;;;;49.00;35.67;;;5.20;91.70;;;;;;5048063;28;20123;-73
2023/02/22 06:44:56;;;;;;;46.40;33.08;;;5.20;91.50;;;;;;5033701;28;20024;-73
2023/02/22 06:47:22;;;;;;;44.70;32.47;;;5.20;91.50;;;;;;5047813;28;20065;-72
2023/02/22 06:49:59;;;;;;;45.83;31.50;;;5.30;91.60;;;;;;5040470;28;20040;-75
2023/02/22 06:52:25;;;;;;;43.00;29.90;;;5.30;91.60;;;;;;5044398;28;20692;-73
2023/02/22 06:54:51;;;;;;;40.80;28.42;;;5.40;91.60;;;;;;5026218;28;20033;-71
2023/02/22 06:57:17;;;;;;;39.90;28.75;;;5.40;91.60;;;;;;5043374;28;20033;-74
2023/02/22 06:59:43;;;;;;;43.08;30.77;;;5.50;91.60;;;;;;5045913;28;20067;-70
2023/02/22 07:02:11;;;;;;;39.97;30.08;;;5.50;91.70;;;;;;5043186;28;20036;-74
2023/02/22 07:04:36;;;;;;;41.25;30.23;;;5.50;91.60;;;;;;5027177;28;20031;-74
2023/02/22 07:07:02;;;;;;;40.30;29.25;;;5.60;91.50;;;;;;5043722;28;20040;-72
2023/02/22 07:09:28;;;;;;;41.17;29.30;;;5.60;91.40;;;;;;5043958;28;20024;-74
2023/02/22 07:11:54;;;;;;;42.78;32.35;;;5.60;91.40;;;;;;5045867;28;20128;-73
2023/02/22 07:14:20;;;;;;;38.90;29.42;;;5.60;91.40;;;;;;5042299;28;20048;-71
2023/02/22 07:16:46;;;;;;;45.08;30.55;;;5.70;91.40;;;;;;5044530;28;20055;-71
2023/02/22 07:19:12;;;;;;;38.25;28.52;;;5.70;91.40;;;;;;5043602;28;20329;-72
2023/02/22 07:21:38;;;;;;;37.58;27.27;;;5.70;91.40;;;;;;5044607;28;20037;-73
2023/02/22 07:24:04;;;;;;;41.67;28.83;;;5.80;91.40;;;;;;5041999;28;20468;-73
2023/02/22 07:26:30;;;;;;;38.95;29.05;;;5.80;91.40;;;;;;5025418;28;22126;-72
2023/02/22 07:28:56;;;;;;;41.50;29.42;;;5.80;91.30;;;;;;5043999;28;20078;-71
2023/02/22 07:31:22;;;;;;;40.58;28.50;;;5.90;91.30;;;;;;5043299;28;20033;-73
2023/02/22 07:33:48;;;;;;;39.22;28.98;;;5.90;91.30;;;;;;5041574;28;20041;-72
2023/02/22 07:36:16;;;;;;;40.40;29.13;;;5.90;91.30;;;;;;5027249;28;20045;-71
2023/02/22 07:38:44;;;;;;;41.25;28.77;;;6.00;91.30;;;;;;5043435;28;20450;-71
2023/02/22 07:41:10;;;;;;;43.03;29.58;;;6.00;91.20;;;;;;5039433;28;20063;-72
2023/02/22 07:43:35;;;;;;;39.17;28.10;;;6.00;91.20;;;;;;5042811;28;20767;-72
2023/02/22 07:46:02;;;;;;;40.50;28.27;;;6.10;91.10;;;;;;5043498;28;20380;-71
2023/02/22 07:48:29;;;;;;;46.28;32.60;;;6.10;91.20;;;;;;5044547;28;20079;-71
2023/02/22 07:50:56;;;;;;;41.35;29.30;;;6.20;91.20;;;;;;5042992;28;20033;-75
2023/02/22 07:53:25;;;;;;;40.72;30.15;;;6.20;91.20;;;;;;5043289;28;20029;-71
2023/02/22 07:55:51;;;;;;;42.45;31.80;;;6.30;91.20;;;;;;5027491;28;20330;-72
2023/02/22 07:58:20;;;;;;;46.90;33.65;;;6.40;91.20;;;;;;5046976;28;20025;-75
2023/02/22 08:00:48;;;;;;;41.78;30.25;;;6.40;91.20;;;;;;5043202;28;20021;-72
2023/02/22 08:03:16;;;;;;;44.95;32.17;;;6.50;91.20;;;;;;5045052;28;20041;-71
2023/02/22 08:05:45;;;;;;;40.22;29.15;;;6.60;91.30;;;;;;5042409;28;20136;-74
2023/02/22 08:08:13;;;;;;;41.70;30.52;;;6.60;91.30;;;;;;5041690;28;20047;-75
2023/02/22 08:10:39;;;;;;;42.72;30.02;;;6.70;91.30;;;;;;5039710;28;20030;-74
2023/02/22 08:13:05;;;;;;;41.75;29.85;;;6.80;91.00;;;;;;5039392;28;20539;-75
2023/02/22 08:15:36;;;;;;;38.45;27.83;;;6.90;90.80;;;;;;5038082;28;20029;-77
2023/02/22 08:18:05;;;;;;;36.60;27.92;;;7.00;90.60;;;;;;5038433;28;20465;-77
2023/02/22 08:20:31;;;;;;;37.47;27.52;;;7.00;90.40;;;;;;5038725;28;20040;-77
2023/02/22 08:22:57;;;;;;;37.55;27.25;;;7.10;90.30;;;;;;5038701;28;20044;-75
2023/02/22 08:25:25;;;;;;;37.45;27.88;;;7.10;90.10;;;;;;5024053;28;20104;-75
2023/02/22 08:27:57;;;;;;;38.75;28.38;;;7.20;89.90;;;;;;5040551;28;20132;-75
2023/02/22 08:30:23;;;;;;;38.05;26.20;;;7.30;89.70;;;;;;5021204;28;20056;-76
2023/02/22 08:32:50;;;;;;;36.42;26.02;;;7.40;89.40;;;;;;5042601;28;20484;-75
2023/02/22 08:35:18;;;;;;;37.60;26.75;;;7.40;89.20;;;;;;5041561;28;20634;-77
2023/02/22 08:37:45;;;;;;;33.22;25.02;;;7.50;88.90;;;;;;5041735;28;20041;-74
2023/02/22 08:40:12;;;;;;;34.95;25.88;;;7.60;88.60;;;;;;5041949;28;20497;-75
2023/02/22 08:42:38;;;;;;;35.53;26.15;;;7.60;88.50;;;;;;5042781;28;20040;-77
2023/02/22 08:45:05;;;;;;;34.50;25.33;;;7.60;88.30;;;;;;5040243;28;20083;-77
2023/02/22 08:47:30;;;;;;;35.70;25.92;;;7.60;87.90;;;;;;5023244;28;20044;-76
2023/02/22 08:49:56;;;;;;;34.65;24.10;;;7.70;87.80;;;;;;5036512;28;20025;-76
2023/02/22 08:52:22;;;;;;;36.47;25.65;;;7.70;87.40;;;;;;5034407;28;20381;-76
2023/02/22 08:54:47;;;;;;;34.78;24.65;;;7.80;87.20;;;;;;5040721;28;20029;-77
2023/02/22 08:57:13;;;;;;;33.40;25.83;;;7.90;86.90;;;;;;5041564;28;20118;-77
2023/02/22 08:59:39;;;;;;;36.58;26.17;;;7.90;86.80;;;;;;5039296;28;20036;-75
2023/02/22 09:02:12;;;;;;;33.42;25.67;;;8.00;86.70;;;;;;5041649;28;20040;-75
2023/02/22 09:04:38;;;;;;;37.20;26.95;;;8.00;86.80;;;;;;5039777;28;20060;-74
2023/02/22 09:07:03;;;;;;;32.65;25.42;;;8.10;86.60;;;;;;5029889;28;20269;-74
2023/02/22 09:09:29;;;;;;;37.17;26.83;;;8.20;86.70;;;;;;5036562;28;20044;-75
2023/02/22 09:11:55;;;;;;;33.22;26.25;;;8.30;86.30;;;;;;5016179;28;20045;-74
2023/02/22 09:14:20;;;;;;;31.55;24.55;;;8.40;85.90;;;;;;5023002;28;20036;-77
2023/02/22 09:16:46;;;;;;;39.97;27.13;;;8.50;85.70;;;;;;5035274;28;20102;-74
2023/02/22 09:19:12;;;;;;;37.40;27.08;;;8.60;85.50;;;;;;5021243;28;20076;-75
2023/02/22 09:21:39;;;;;;;37.10;26.95;;;8.60;85.40;;;;;;5021468;28;20045;-73
2023/02/22 09:24:07;;;;;;;32.13;26.08;;;8.70;85.30;;;;;;5040577;28;20500;-73
2023/02/22 09:26:41;;;;;;;36.90;26.17;;;8.70;85.10;;;;;;5041081;28;20057;-74
2023/02/22 09:29:10;;;;;;;38.13;26.33;;;8.80;85.00;;;;;;5040364;28;20036;-73
2023/02/22 09:31:38;;;;;;;34.92;26.52;;;8.80;85.10;;;;;;5036670;28;20037;-76
2023/02/22 09:34:12;;;;;;;39.03;28.50;;;8.80;85.30;;;;;;5037511;28;20029;-73
2023/02/22 09:36:39;;;;;;;38.33;27.67;;;8.90;85.20;;;;;;5038612;28;20385;-73
2023/02/22 09:39:05;;;;;;;36.65;28.10;;;8.90;85.40;;;;;;5042061;28;20514;-74
2023/02/22 09:41:47;;;;;;;34.55;27.10;;;9.00;85.00;;;;;;5026512;28;20103;-75
2023/02/22 09:44:27;;;;;;;37.88;28.85;;;9.10;85.40;;;;;;5039475;28;20192;-75
2023/02/22 09:46:55;;;;;;;41.15;29.77;;;9.10;85.40;;;;;;5037708;28;20045;-76
2023/02/22 09:49:40;;;;;;;39.28;30.27;;;9.10;85.10;;;;;;5035473;28;20060;-76
2023/02/22 09:52:20;;;;;;;39.63;29.90;;;9.10;85.30;;;;;;5036526;28;20709;-76
2023/02/22 09:54:52;;;;;;;38.97;30.60;;;9.10;85.30;;;;;;5034116;28;20025;-75
2023/02/22 09:57:27;;;;;;;38.92;30.10;;;9.10;85.30;;;;;;5033104;28;20466;-75
2023/02/22 10:00:12;;;;;;;41.10;29.48;;;9.20;85.40;;;;;;5036873;28;20114;-75
2023/02/22 10:02:50;;;;;;;42.40;31.73;;;9.20;85.40;;;;;;5039851;28;20666;-74
2023/02/22 10:05:33;;;;;;;41.20;30.42;;;9.20;85.10;;;;;;5046202;28;20099;-75
2023/02/22 10:08:04;;;;;;;40.97;31.27;;;9.30;85.10;;;;;;5045372;28;20187;-75
2023/02/22 10:10:38;;;;;;;40.90;28.98;;;9.40;84.80;;;;;;5043803;28;20044;-75
2023/02/22 10:13:08;;;;;;;41.97;31.95;;;9.40;84.70;;;;;;5041400;28;20492;-77
2023/02/22 10:15:41;;;;;;;38.95;32.88;;;9.50;84.70;;;;;;5041292;28;20033;-74
2023/02/22 10:18:25;;;;;;;44.92;34.13;;;9.50;84.60;;;;;;5045161;28;20029;-74
2023/02/22 10:21:01;;;;;;;44.55;32.15;;;9.50;84.60;;;;;;5045243;28;20040;-73
2023/02/22 10:23:56;;;;;;;43.28;34.75;;;9.60;84.60;;;;;;5046825;28;20029;-73
2023/02/22 10:26:30;;;;;;;44.15;32.38;;;9.60;84.30;;;;;;5048102;28;20091;-73
2023/02/22 10:29:17;;;;;;;42.72;34.53;;;9.70;84.30;;;;;;5048460;28;20056;-75
2023/02/22 10:31:51;;;;;;;43.83;35.03;;;9.70;84.50;;;;;;5041713;28;20045;-75
2023/02/22 10:34:25;;;;;;;42.72;34.65;;;9.70;84.40;;;;;;5044317;28;20029;-73
2023/02/22 10:37:06;;;;;;;44.10;34.05;;;9.70;84.30;;;;;;5029156;28;20048;-74
2023/02/22 10:39:37;;;;;;;45.50;35.22;;;9.70;84.30;;;;;;5043055;28;20163;-75
2023/02/22 10:42:06;;;;;;;45.25;36.88;;;9.60;84.60;;;;;;5046229;28;20353;-74
2023/02/22 10:44:37;;;;;;;43.65;35.72;;;9.70;84.70;;;;;;5046614;28;20179;-73
2023/02/22 10:47:06;;;;;;;48.17;37.90;;;9.80;84.60;;;;;;5046460;28;20481;-74
2023/02/22 10:49:52;;;;;;;44.03;36.30;;;9.80;84.40;;;;;;5044540;28;20124;-75
2023/02/22 10:52:28;;;;;;;43.67;36.35;;;9.80;84.30;;;;;;5025980;28;20083;-74
2023/02/22 10:54:56;;;;;;;48.08;38.35;;;9.80;84.60;;;;;;5037400;28;20053;-73
2023/02/22 10:57:32;;;;;;;48.70;40.72;;;9.80;84.60;;;;;;5043364;28;20128;-74
2023/02/22 11:00:36;;;;;;;47.25;39.25;;;9.80;84.50;;;;;;5045123;28;20492;-74
2023/02/22 11:03:20;;;;;;;48.90;39.95;;;9.80;84.50;;;;;;5050197;28;20033;-74
2023/02/22 11:05:47;;;;;;;52.88;40.08;;;9.90;84.80;;;;;;5047932;28;20033;-75
2023/02/22 11:08:20;;;;;;;52.05;42.17;;;9.90;84.50;;;;;;5053891;28;20033;-75
2023/02/22 11:10:55;;;;;;;53.55;42.38;;;9.90;84.90;;;;;;5051243;28;20044;-74
2023/02/22 11:13:30;;;;;;;52.03;41.45;;;10.00;84.90;;;;;;5053831;28;20529;-73
2023/02/22 11:16:15;;;;;;;49.85;41.88;;;9.90;85.20;;;;;;5045904;28;20048;-74
2023/02/22 11:18:41;;;;;;;54.00;41.28;;;10.00;85.20;;;;;;5049979;28;20056;-74
2023/02/22 11:21:10;;;;;;;55.97;44.20;;;10.10;84.90;;;;;;5050763;28;20059;-74
2023/02/22 11:23:38;;;;;;;58.33;46.13;;;10.10;84.60;;;;;;5050305;28;20119;-74
2023/02/22 11:26:16;;;;;;;62.25;49.83;;;10.00;85.00;;;;;;5050808;28;20131;-75
2023/02/22 11:28:48;;;;;;;61.85;49.15;;;10.10;85.20;;;;;;5050829;28;20029;-74
2023/02/22 11:31:23;;;;;;;67.18;49.97;;;10.10;85.40;;;;;;5050150;28;20052;-74
2023/02/22 11:33:54;;;;;;;60.47;48.28;;;9.90;85.50;;;;;;5051087;28;20056;-75
2023/02/22 11:36:39;;;;;;;61.53;48.60;;;9.70;85.90;;;;;;5041688;28;20036;-74
2023/02/22 11:39:27;;;;;;;69.00;50.03;;;9.60;86.40;;;;;;5022688;28;21587;-74
2023/02/22 11:41:55;;;;;;;62.67;50.28;;;9.60;86.60;;;;;;5037866;28;20717;-76
2023/02/22 11:44:31;;;;;;;69.70;50.95;;;9.70;86.80;;;;;;5037621;28;20063;-75
2023/02/22 11:47:05;;;;;;;67.32;50.63;;;9.70;86.80;;;;;;5022316;28;20052;-74
2023/02/22 11:49:39;;;;;;;73.10;53.27;;;9.60;87.20;;;;;;5037552;28;20029;-76
2023/02/22 11:52:16;;;;;;;74.43;52.38;;;9.60;87.30;;;;;;5034991;28;20055;-73
2023/02/22 11:54:45;;;;;;;77.97;55.90;;;9.60;87.60;;;;;;5021948;28;20029;-75
2023/02/22 11:57:45;;;;;;;83.28;56.88;;;9.60;87.60;;;;;;5033970;28;20055;-75
2023/02/22 12:00:52;;;;;;;85.60;56.70;;;9.60;87.90;;;;;;5039545;28;20025;-76
2023/02/22 12:03:43;;;;;;;88.55;57.92;;;9.50;88.20;;;;;;5023341;28;20080;-75
2023/02/22 12:06:34;;;;;;;92.57;58.10;;;9.50;88.60;;;;;;5038162;28;20128;-74
2023/02/22 12:09:06;;;;;;;92.13;58.95;;;9.60;88.70;;;;;;5024540;28;20063;-75
2023/02/22 12:11:45;;;;;;;89.88;59.40;;;9.60;88.90;;;;;;5033442;28;20076;-75
2023/02/22 12:14:24;;;;;;;85.97;58.70;;;9.60;89.00;;;;;;5031918;28;20063;-75
2023/02/22 12:17:22;;;;;;;89.22;59.38;;;9.70;89.20;;;;;;5022970;28;20111;-76
2023/02/22 12:20:20;;;;;;;90.53;56.85;;;9.70;89.40;;;;;;5016263;28;20025;-75
2023/02/22 12:23:32;;;;;;;98.15;59.17;;;9.80;89.40;;;;;;5032731;28;20036;-75
2023/02/22 12:26:15;;;;;;;95.63;58.22;;;9.70;89.40;;;;;;5025061;28;20041;-76
2023/02/22 12:28:46;;;;;;;94.82;60.67;;;9.70;89.40;;;;;;5033966;28;20059;-76
2023/02/22 12:31:17;;;;;;;103.43;63.85;;;9.70;89.60;;;;;;5016821;28;20042;-76
2023/02/22 12:34:10;;;;;;;97.72;60.28;;;9.60;89.70;;;;;;5039548;28;20028;-75
2023/02/22 12:36:43;;;;;;;99.90;63.30;;;9.80;89.90;;;;;;5053729;28;20044;-76
2023/02/22 12:39:37;;;;;;;101.43;63.05;;;9.80;89.80;;;;;;5043982;28;20056;-76
2023/02/22 12:42:28;;;;;;;103.55;62.40;;;9.70;90.00;;;;;;5046480;28;20120;-75
2023/02/22 12:45:00;;;;;;;114.00;64.45;;;9.70;90.10;;;;;;5014920;28;20041;-76
2023/02/22 12:47:35;;;;;;;109.32;65.15;;;9.80;90.20;;;;;;5045319;28;20500;-74
2023/02/22 12:50:16;;;;;;;114.15;66.80;;;9.80;90.30;;;;;;5052035;28;20388;-75
2023/02/22 12:52:54;;;;;;;108.25;65.25;;;9.80;90.30;;;;;;5046584;28;20055;-74
2023/02/22 12:55:30;;;;;;;120.13;68.40;;;9.80;90.50;;;;;;5031026;28;20354;-74
2023/02/22 12:58:07;;;;;;;115.18;67.47;;;9.80;90.50;;;;;;5046666;28;20123;-75